createdAt,value
2023-01-09T00:00:17.337Z,100776.84
2023-01-09T00:04:29.996Z,100776.91
2023-01-09T00:08:42.390Z,100768.09
2023-01-09T00:12:54.773Z,100782.22
2023-01-09T00:17:08.008Z,100778.75
2023-01-09T00:21:21.387Z,100774.34
2023-01-09T00:25:33.933Z,100777.88
2023-01-09T00:29:46.951Z,100772.69
2023-01-09T00:34:03.187Z,100769.16
2023-01-09T00:38:15.496Z,100760.28
2023-01-09T00:42:32.271Z,100765.59
2023-01-09T00:46:49.359Z,100757.66
2023-01-09T00:51:01.773Z,100740.06
2023-01-09T00:55:15.689Z,100729.44
2023-01-09T00:59:28.818Z,100733.94
2023-01-09T01:03:41.483Z,100729.56
2023-01-09T01:07:53.872Z,100734.88
2023-01-09T01:12:07.513Z,100731.34
2023-01-09T01:16:20.429Z,100725.19
2023-01-09T01:20:33.004Z,100725.22
2023-01-09T01:24:45.364Z,100714.63
2023-01-09T01:28:59.890Z,100713.72
2023-01-09T01:33:12.214Z,100704.06
2023-01-09T01:37:24.933Z,100703.13
2023-01-09T01:41:37.950Z,100693.41
2023-01-09T01:45:50.306Z,100693.41
2023-01-09T01:50:08.807Z,100681.91
2023-01-09T01:54:26.558Z,100670.47
2023-01-09T01:59:05.626Z,100666.94
2023-01-09T02:03:19.715Z,100650.19
2023-01-09T02:07:32.042Z,100647.53
2023-01-09T02:11:52.704Z,100640.44
2023-01-09T02:16:23.056Z,100638.69
2023-01-09T02:20:49.055Z,100633.38
2023-01-09T02:25:29.172Z,100631.63
2023-01-09T02:29:54.811Z,100625.44
2023-01-09T02:34:20.268Z,100619.25
2023-01-09T02:39:00.530Z,100614.78
2023-01-09T02:43:13.767Z,100605.06
2023-01-09T02:47:26.079Z,100607.69
2023-01-09T02:51:53.075Z,100590.88
2023-01-09T02:56:12.551Z,100597.03
2023-01-09T03:00:36.667Z,100582.94
2023-01-09T03:05:07.156Z,100576.75
2023-01-09T03:09:22.624Z,100572.38
2023-01-09T03:13:50.258Z,100580.34
2023-01-09T03:18:06.086Z,100574.13
2023-01-09T03:22:20.067Z,100568.81
2023-01-09T03:26:32.702Z,100561.69
2023-01-09T03:30:45.397Z,100562.63
2023-01-09T03:34:57.720Z,100570.63
2023-01-09T03:39:10.070Z,100568.78
2023-01-09T03:43:22.486Z,100570.53
2023-01-09T03:47:34.948Z,100572.34
2023-01-09T03:51:47.354Z,100562.59
2023-01-09T03:55:59.787Z,100554.59
2023-01-09T04:00:13.270Z,100547.50
2023-01-09T04:04:25.640Z,100561.72
2023-01-09T04:08:37.956Z,100537.81
2023-01-09T04:12:50.404Z,100522.56
2023-01-09T04:17:02.863Z,100543.91
2023-01-09T04:21:15.197Z,100547.47
2023-01-09T04:25:27.901Z,100545.75
2023-01-09T04:29:40.179Z,100548.31
2023-01-09T04:33:52.538Z,100541.22
2023-01-09T04:38:04.917Z,100536.00
2023-01-09T04:42:17.582Z,100535.88
2023-01-09T04:46:29.886Z,100524.38
2023-01-09T04:50:42.251Z,100518.16
2023-01-09T04:54:54.685Z,100504.94
2023-01-09T04:59:07.620Z,100514.59
2023-01-09T05:03:20.058Z,100508.38
2023-01-09T05:07:34.684Z,100505.81
2023-01-09T05:11:47.005Z,100525.28
2023-01-09T05:15:59.396Z,100520.75
2023-01-09T05:20:12.626Z,100511.91
2023-01-09T05:24:25.049Z,100511.91
2023-01-09T05:28:37.426Z,100499.47
2023-01-09T05:32:49.802Z,100501.25
2023-01-09T05:37:02.917Z,100495.84
2023-01-09T05:41:16.948Z,100490.41
2023-01-09T05:45:29.343Z,100500.13
2023-01-09T05:49:42.029Z,100497.50
2023-01-09T05:53:54.511Z,100495.75
2023-01-09T05:58:06.838Z,100487.69
2023-01-09T06:02:21.471Z,100490.34
2023-01-09T06:06:33.897Z,100493.00
2023-01-09T06:10:47.337Z,100499.13
2023-01-09T06:14:59.827Z,100501.78
2023-01-09T06:19:12.175Z,100503.59
2023-01-09T06:23:24.523Z,100509.75
2023-01-09T06:27:36.845Z,100508.09
2023-01-09T06:31:49.223Z,100504.53
2023-01-09T06:36:01.770Z,100498.25
2023-01-09T06:40:15.216Z,100502.69
2023-01-09T06:44:27.608Z,100496.47
2023-01-09T06:48:39.959Z,100493.06
2023-01-09T06:52:52.383Z,100496.63
2023-01-09T06:57:04.899Z,100494.16
2023-01-09T07:01:17.498Z,100494.19
2023-01-09T07:05:30.741Z,100487.09
2023-01-09T07:09:43.168Z,100493.41
2023-01-09T07:13:55.655Z,100484.56
2023-01-09T07:18:08.082Z,100476.59
2023-01-09T07:22:20.454Z,100477.34
2023-01-09T07:26:32.926Z,100461.13
2023-01-09T07:30:45.230Z,100475.38
2023-01-09T07:34:57.763Z,100471.78
2023-01-09T07:39:10.154Z,100465.47
2023-01-09T07:43:27.292Z,100467.09
2023-01-09T07:47:41.981Z,100457.38
2023-01-09T07:51:57.495Z,100457.59
2023-01-09T07:56:10.608Z,100458.19
2023-01-09T08:00:23.135Z,100464.91
2023-01-09T08:04:35.675Z,100470.44
2023-01-09T08:08:48.116Z,100466.63
2023-01-09T08:13:00.719Z,100474.22
2023-01-09T08:17:13.575Z,100463.00
2023-01-09T08:21:25.840Z,100461.25
2023-01-09T08:25:38.175Z,100474.31
2023-01-09T08:29:50.761Z,100467.53
2023-01-09T08:34:03.546Z,100461.38
2023-01-09T08:38:16.046Z,100463.97
2023-01-09T08:42:46.966Z,100462.84
2023-01-09T08:47:06.532Z,100462.59
2023-01-09T08:51:20.716Z,100462.25
2023-01-09T08:55:33.037Z,100442.69
2023-01-09T08:59:45.526Z,100459.94
2023-01-09T09:03:57.963Z,100463.78
2023-01-09T09:08:12.926Z,100455.13
2023-01-09T09:12:26.253Z,100445.69
2023-01-09T09:16:38.651Z,100442.78
2023-01-09T09:20:51.455Z,100448.41
2023-01-09T09:25:05.234Z,100441.63
2023-01-09T09:29:17.644Z,100414.16
2023-01-09T09:33:30.616Z,100396.19
2023-01-09T09:37:44.551Z,100389.75
2023-01-09T09:42:53.028Z,100381.69
2023-01-09T09:47:27.350Z,100382.63
2023-01-09T09:51:50.783Z,100370.53
2023-01-09T09:56:05.066Z,100366.53
2023-01-09T10:00:22.558Z,100350.59
2023-01-09T10:04:40.733Z,100347.34
2023-01-09T10:09:15.039Z,100337.06
2023-01-09T10:13:46.744Z,100333.50
2023-01-09T10:18:11.267Z,100316.41
2023-01-09T10:23:15.242Z,100298.19
2023-01-09T10:27:39.791Z,100283.28
2023-01-09T10:32:10.207Z,100289.16
2023-01-09T10:36:30.743Z,100288.41
2023-01-09T10:40:52.143Z,100308.22
2023-01-09T10:45:19.863Z,100299.00
2023-01-09T10:49:36.454Z,100319.94
2023-01-09T10:53:54.423Z,100319.25
2023-01-09T10:58:14.683Z,100305.75
2023-01-09T11:02:33.898Z,100289.66
2023-01-09T11:06:51.477Z,100280.97
2023-01-09T11:11:04.921Z,100266.41
2023-01-09T11:15:20.885Z,100252.38
2023-01-09T11:19:33.903Z,100243.50
2023-01-09T11:23:46.158Z,100237.44
2023-01-09T11:28:07.978Z,100219.75
2023-01-09T11:32:25.525Z,100207.25
2023-01-09T11:36:38.222Z,100217.56
2023-01-09T11:40:57.802Z,100212.13
2023-01-09T11:45:22.203Z,100216.94
2023-01-09T11:49:34.584Z,100218.78
2023-01-09T11:53:57.795Z,100205.53
2023-01-09T11:58:20.197Z,100197.41
2023-01-09T12:02:35.794Z,100171.78
2023-01-09T12:07:45.110Z,100153.41
2023-01-09T12:12:12.132Z,100152.59
2023-01-09T12:16:33.881Z,100125.69
2023-01-09T12:21:04.090Z,100122.53
2023-01-09T12:25:38.673Z,100116.94
2023-01-09T12:30:02.846Z,100090.69
2023-01-09T12:34:26.125Z,100085.84
2023-01-09T12:39:08.594Z,100079.66
2023-01-09T12:43:58.628Z,100077.75
2023-01-09T12:48:28.775Z,100063.31
2023-01-09T12:52:58.647Z,100054.97
2023-01-09T12:57:33.237Z,100063.50
2023-01-09T13:01:51.346Z,100043.44
2023-01-09T13:06:13.238Z,100033.94
2023-01-09T13:10:43.967Z,100030.41
2023-01-09T13:15:07.888Z,100019.59
2023-01-09T13:19:37.738Z,100012.41
2023-01-09T13:24:03.546Z,100018.84
2023-01-09T13:28:31.648Z,99998.16
2023-01-09T13:32:52.036Z,99991.63
2023-01-09T13:37:04.544Z,99984.75
2023-01-09T13:41:37.690Z,99977.25
2023-01-09T13:45:52.621Z,99982.31
2023-01-09T13:50:09.372Z,99983.09
2023-01-09T13:54:58.992Z,99992.81
2023-01-09T13:59:28.481Z,99987.97
2023-01-09T14:03:40.847Z,99983.16
2023-01-09T14:08:07.243Z,99994.41
2023-01-09T14:12:22.713Z,99997.28
2023-01-09T14:16:38.291Z,100000.34
2023-01-09T14:21:12.565Z,99995.88
2023-01-09T14:25:29.574Z,99997.34
2023-01-09T14:29:44.084Z,99997.06
2023-01-09T14:34:32.243Z,99989.66
2023-01-09T14:38:49.696Z,99988.84
2023-01-09T14:43:13.367Z,99977.59
2023-01-09T14:47:31.793Z,99959.84
2023-01-09T14:51:47.341Z,99971.75
2023-01-09T14:56:02.837Z,99966.59
2023-01-09T15:00:18.342Z,99947.97
2023-01-09T15:04:40.978Z,99944.84
2023-01-09T15:09:02.414Z,99917.44
2023-01-09T15:13:29.750Z,99913.00
2023-01-09T15:17:45.743Z,99912.91
2023-01-09T15:22:05.742Z,99912.69
2023-01-09T15:26:26.494Z,99917.34
2023-01-09T15:30:39.584Z,99913.84
2023-01-09T15:34:55.348Z,99917.56
2023-01-09T15:39:07.890Z,99925.47
2023-01-09T15:43:20.652Z,99928.41
2023-01-09T15:47:33.109Z,99929.22
2023-01-09T15:51:47.343Z,99934.41
2023-01-09T15:56:09.092Z,99942.56
2023-01-09T16:00:35.552Z,99955.00
2023-01-09T16:04:49.198Z,99961.53
2023-01-09T16:09:02.976Z,99969.56
2023-01-09T16:13:16.180Z,99972.34
2023-01-09T16:17:31.372Z,99957.34
2023-01-09T16:21:46.967Z,99963.56
2023-01-09T16:26:20.171Z,99951.13
2023-01-09T16:30:33.472Z,99954.72
2023-01-09T16:34:53.300Z,99957.38
2023-01-09T16:39:05.759Z,99948.56
2023-01-09T16:43:18.006Z,99949.19
2023-01-09T16:47:30.405Z,99952.06
2023-01-09T16:51:42.710Z,99947.59
2023-01-09T16:55:55.405Z,99969.75
2023-01-09T17:00:14.492Z,99947.81
2023-01-09T17:04:26.944Z,99926.50
2023-01-09T17:08:40.773Z,99915.06
2023-01-09T17:12:53.266Z,99883.25
2023-01-09T17:17:11.628Z,99910.75
2023-01-09T17:21:27.235Z,99909.06
2023-01-09T17:25:58.852Z,99916.91
2023-01-09T17:30:18.662Z,99895.81
2023-01-09T17:34:32.185Z,99905.66
2023-01-09T17:38:44.536Z,99892.28
2023-01-09T17:42:56.955Z,99855.31
2023-01-09T17:47:18.540Z,99838.38
2023-01-09T17:51:32.029Z,99845.31
2023-01-09T17:55:44.586Z,99824.41
2023-01-09T17:59:57.044Z,99773.38
2023-01-09T18:04:09.865Z,99754.41
2023-01-09T18:08:22.228Z,99763.44
2023-01-09T18:12:36.137Z,99772.97
2023-01-09T18:16:48.625Z,99752.34
2023-01-09T18:21:05.062Z,99767.59
2023-01-09T18:25:17.667Z,99764.06
2023-01-09T18:29:30.649Z,99769.06
2023-01-09T18:33:47.342Z,99765.13
2023-01-09T18:38:00.263Z,99760.44
2023-01-09T18:42:12.905Z,99743.91
2023-01-09T18:46:26.315Z,99757.41
2023-01-09T18:50:39.035Z,99758.09
2023-01-09T18:54:52.553Z,99754.06
2023-01-09T18:59:07.003Z,99758.53
2023-01-09T19:03:20.578Z,99755.63
2023-01-09T19:07:34.186Z,99744.59
2023-01-09T19:11:46.879Z,99742.28
2023-01-09T19:16:00.501Z,99753.88
2023-01-09T19:20:13.025Z,99751.09
2023-01-09T19:24:25.792Z,99743.44
2023-01-09T19:28:39.873Z,99740.72
2023-01-09T19:32:52.459Z,99742.75
2023-01-09T19:37:05.252Z,99739.47
2023-01-09T19:41:20.293Z,99720.84
2023-01-09T19:45:32.790Z,99704.13
2023-01-09T19:49:46.784Z,99676.69
2023-01-09T19:58:16.008Z,99660.56
2023-01-09T20:02:28.429Z,99667.34
2023-01-09T20:06:45.915Z,99673.13
2023-01-09T20:11:03.698Z,99671.13
2023-01-09T20:15:18.628Z,99672.53
2023-01-09T20:19:33.447Z,99652.03
2023-01-09T20:23:46.085Z,99633.00
2023-01-09T20:27:58.954Z,99643.06
2023-01-09T20:32:12.315Z,99656.22
2023-01-09T20:36:29.405Z,99640.38
2023-01-09T20:40:45.082Z,99643.81
2023-01-09T20:44:57.539Z,99630.19
2023-01-09T20:49:13.630Z,99648.38
2023-01-09T20:53:26.131Z,99620.63
2023-01-09T20:57:40.221Z,99603.94
2023-01-09T21:01:54.084Z,99582.06
2023-01-09T21:06:08.303Z,99577.31
2023-01-09T21:10:24.028Z,99576.25
2023-01-09T21:14:39.120Z,99593.22
2023-01-09T21:18:54.488Z,99579.41
2023-01-09T21:23:09.107Z,99547.50
2023-01-09T21:27:21.611Z,99521.75
2023-01-09T21:31:35.130Z,99513.25
2023-01-09T21:35:58.896Z,99529.31
2023-01-09T21:40:18.199Z,99526.13
2023-01-09T21:44:49.213Z,99530.47
2023-01-09T21:49:07.279Z,99525.47
2023-01-09T21:53:20.213Z,99525.16
2023-01-09T21:57:32.613Z,99533.28
2023-01-09T22:01:52.353Z,99536.31
2023-01-09T22:06:05.839Z,99543.25
2023-01-09T22:10:18.381Z,99527.97
2023-01-09T22:14:30.787Z,99531.31
2023-01-09T22:18:44.253Z,99538.41
2023-01-09T22:22:56.611Z,99590.91
2023-01-09T22:27:09.074Z,99592.47
2023-01-09T22:31:25.304Z,99579.41
2023-01-09T22:35:39.846Z,99537.03
2023-01-09T22:39:52.977Z,99496.91
2023-01-09T22:44:08.366Z,99499.59
2023-01-09T22:48:20.689Z,99508.38
2023-01-09T22:52:34.522Z,99506.06
2023-01-09T22:56:46.809Z,99521.97
2023-01-09T23:00:59.401Z,99526.72
2023-01-09T23:05:12.108Z,99510.06
2023-01-09T23:09:25.521Z,99515.38
2023-01-09T23:13:38.978Z,99496.84
2023-01-09T23:17:51.279Z,99487.31
2023-01-09T23:22:05.352Z,99476.47
2023-01-09T23:26:17.675Z,99465.28
2023-01-09T23:30:30.067Z,99475.31
2023-01-09T23:34:42.588Z,99463.59
2023-01-09T23:38:55.059Z,99444.81
2023-01-09T23:43:10.638Z,99449.19
2023-01-09T23:47:23.046Z,99461.72
2023-01-09T23:51:35.526Z,99438.13
2023-01-09T23:55:48.680Z,99429.38
